createdAt,value
2022-10-11T00:01:56.670Z,3.50
2022-10-11T00:04:23.777Z,3.53
2022-10-11T00:06:50.924Z,3.53
2022-10-11T00:09:18.019Z,3.37
2022-10-11T00:11:45.294Z,3.40
2022-10-11T00:14:12.381Z,3.30
2022-10-11T00:16:41.508Z,3.37
2022-10-11T00:19:08.574Z,3.17
2022-10-11T00:21:36.689Z,3.70
2022-10-11T00:24:04.079Z,3.50
2022-10-11T00:26:31.175Z,3.43
2022-10-11T00:28:58.260Z,3.43
2022-10-11T00:31:25.398Z,3.40
2022-10-11T00:33:53.509Z,3.80
2022-10-11T00:36:20.577Z,3.37
2022-10-11T00:38:47.802Z,3.30
2022-10-11T00:41:15.217Z,3.80
2022-10-11T00:43:42.503Z,3.70
2022-10-11T00:46:12.355Z,3.60
2022-10-11T00:48:39.402Z,3.13
2022-10-11T00:51:11.060Z,3.20
2022-10-11T00:53:38.125Z,3.30
2022-10-11T00:56:10.630Z,3.30
2022-10-11T00:58:38.003Z,3.33
2022-10-11T01:01:05.195Z,3.57
2022-10-11T01:03:33.186Z,3.40
2022-10-11T01:06:01.300Z,3.27
2022-10-11T01:08:28.821Z,3.20
2022-10-11T01:10:56.103Z,3.47
2022-10-11T01:13:42.025Z,3.20
2022-10-11T01:16:14.379Z,3.23
2022-10-11T01:18:58.822Z,3.40
2022-10-11T01:21:31.616Z,3.20
2022-10-11T01:24:06.005Z,3.20
2022-10-11T01:26:45.873Z,3.50
2022-10-11T01:29:31.789Z,3.20
2022-10-11T01:32:02.863Z,3.33
2022-10-11T01:34:36.977Z,3.37
2022-10-11T01:37:11.745Z,3.50
2022-10-11T01:39:49.882Z,3.67
2022-10-11T01:42:18.139Z,3.60
2022-10-11T01:44:47.073Z,3.40
2022-10-11T01:47:14.140Z,3.30
2022-10-11T01:49:41.913Z,4.03
2022-10-11T01:52:09.040Z,3.63
2022-10-11T01:55:07.518Z,4.00
2022-10-11T01:57:32.032Z,3.60
2022-10-11T02:00:05.172Z,3.57
2022-10-11T02:02:38.262Z,3.67
2022-10-11T02:05:14.184Z,3.67
2022-10-11T02:07:43.591Z,4.13
2022-10-11T02:10:21.908Z,3.67
2022-10-11T02:13:09.254Z,3.33
2022-10-11T02:15:37.597Z,3.53
2022-10-11T02:18:07.308Z,3.70
2022-10-11T02:20:35.007Z,3.43
2022-10-11T02:23:08.547Z,3.43
2022-10-11T02:25:36.861Z,3.50
2022-10-11T02:28:08.379Z,3.60
2022-10-11T02:30:36.602Z,3.67
2022-10-11T02:33:05.022Z,3.97
2022-10-11T02:35:34.671Z,3.43
2022-10-11T02:38:21.995Z,2.83
2022-10-11T02:40:52.059Z,4.00
2022-10-11T02:43:23.976Z,3.57
2022-10-11T02:45:56.574Z,3.77
2022-10-11T02:48:25.014Z,3.70
2022-10-11T02:50:52.129Z,3.60
2022-10-11T02:53:19.274Z,3.70
2022-10-11T02:55:46.530Z,3.40
2022-10-11T02:58:13.564Z,3.63
2022-10-11T03:00:40.815Z,3.03
2022-10-11T03:03:07.893Z,3.30
2022-10-11T03:05:40.510Z,3.10
2022-10-11T03:08:08.682Z,3.00
2022-10-11T03:10:35.855Z,3.30
2022-10-11T03:13:03.440Z,3.30
2022-10-11T03:15:30.557Z,2.90
2022-10-11T03:17:57.808Z,2.80
2022-10-11T03:20:25.243Z,2.90
2022-10-11T03:22:52.563Z,2.87
2022-10-11T03:25:19.598Z,2.60
2022-10-11T03:27:46.677Z,2.37
2022-10-11T03:30:17.865Z,2.30
2022-10-11T03:32:45.327Z,2.40
2022-10-11T03:35:12.466Z,2.10
2022-10-11T03:37:39.497Z,2.27
2022-10-11T03:40:08.346Z,1.90
2022-10-11T03:42:35.608Z,1.77
2022-10-11T03:45:04.991Z,1.90
2022-10-11T03:47:32.479Z,1.40
2022-10-11T03:49:59.521Z,1.70
2022-10-11T03:52:26.575Z,1.37
2022-10-11T03:54:53.898Z,1.30
2022-10-11T03:57:20.930Z,1.30
2022-10-11T03:59:48.272Z,1.30
2022-10-11T04:02:15.457Z,1.20
2022-10-11T04:04:42.585Z,1.20
2022-10-11T04:07:09.885Z,1.33
2022-10-11T04:09:37.069Z,1.30
2022-10-11T04:12:04.322Z,1.43
2022-10-11T04:14:31.452Z,1.40
2022-10-11T04:17:00.472Z,0.90
2022-10-11T04:19:27.907Z,1.10
2022-10-11T04:21:54.948Z,1.10
2022-10-11T04:24:22.002Z,1.00
2022-10-11T04:26:49.177Z,1.03
2022-10-11T04:29:16.479Z,1.17
2022-10-11T04:31:43.613Z,1.13
2022-10-11T04:34:10.636Z,1.30
2022-10-11T04:36:39.011Z,1.40
2022-10-11T04:39:06.588Z,1.17
2022-10-11T04:41:33.999Z,0.97
2022-10-11T04:44:01.597Z,1.30
2022-10-11T04:46:28.913Z,1.20
2022-10-11T04:48:56.080Z,1.13
2022-10-11T04:51:23.403Z,1.07
2022-10-11T04:53:50.421Z,1.23
2022-10-11T04:56:18.461Z,1.27
2022-10-11T04:58:48.172Z,1.47
2022-10-11T05:01:15.515Z,1.60
2022-10-11T05:03:42.586Z,1.50
2022-10-11T05:06:09.997Z,1.30
2022-10-11T05:08:37.438Z,1.57
2022-10-11T05:11:06.513Z,1.23
2022-10-11T05:13:34.638Z,1.40
2022-10-11T05:16:04.792Z,1.40
2022-10-11T05:18:34.242Z,1.20
2022-10-11T05:21:02.670Z,1.23
2022-10-11T05:23:30.751Z,1.63
2022-10-11T05:25:57.925Z,1.63
2022-10-11T05:28:25.046Z,1.40
2022-10-11T05:30:52.180Z,1.33
2022-10-11T05:33:19.272Z,1.70
2022-10-11T05:35:46.307Z,1.63
2022-10-11T05:38:13.732Z,1.57
2022-10-11T05:40:40.924Z,1.63
2022-10-11T05:43:08.002Z,1.77
2022-10-11T05:45:38.974Z,1.60
2022-10-11T05:48:06.414Z,1.80
2022-10-11T05:50:33.499Z,2.00
2022-10-11T05:53:00.638Z,1.80
2022-10-11T05:55:27.987Z,1.93
2022-10-11T05:57:55.897Z,1.83
2022-10-11T06:00:23.451Z,1.93
2022-10-11T06:02:50.797Z,2.07
2022-10-11T06:05:17.976Z,2.13
2022-10-11T06:07:45.039Z,1.97
2022-10-11T06:10:12.072Z,1.90
2022-10-11T06:12:39.236Z,2.20
2022-10-11T06:15:06.733Z,2.47
2022-10-11T06:17:33.869Z,2.43
2022-10-11T06:20:00.891Z,2.40
2022-10-11T06:22:27.963Z,2.30
2022-10-11T06:24:55.033Z,2.03
2022-10-11T06:27:22.045Z,2.60
2022-10-11T06:29:49.182Z,2.03
2022-10-11T06:32:16.290Z,2.00
2022-10-11T06:34:43.327Z,2.40
2022-10-11T06:37:10.379Z,2.23
2022-10-11T06:39:37.408Z,2.23
2022-10-11T06:42:04.534Z,2.03
2022-10-11T06:44:31.575Z,2.00
2022-10-11T06:46:58.583Z,2.17
2022-10-11T06:49:25.636Z,2.03
2022-10-11T06:51:52.681Z,2.20
2022-10-11T06:54:19.750Z,2.23
2022-10-11T06:56:46.787Z,2.70
2022-10-11T06:59:14.983Z,2.27
2022-10-11T07:01:42.449Z,2.13
2022-10-11T07:04:09.556Z,2.43
2022-10-11T07:06:37.760Z,2.47
2022-10-11T07:09:05.615Z,2.20
2022-10-11T07:11:32.695Z,2.17
2022-10-11T07:14:01.081Z,2.10
2022-10-11T07:16:28.803Z,1.93
2022-10-11T07:19:00.499Z,2.10
2022-10-11T07:21:28.590Z,2.00
2022-10-11T07:23:55.652Z,2.10
2022-10-11T07:26:22.736Z,2.07
2022-10-11T07:28:49.899Z,1.93
2022-10-11T07:31:19.230Z,1.93
2022-10-11T07:33:46.468Z,2.00
2022-10-11T07:36:13.882Z,2.00
2022-10-11T07:38:41.858Z,1.70
2022-10-11T07:41:09.345Z,2.00
2022-10-11T07:43:36.805Z,1.87
2022-10-11T07:46:05.007Z,2.50
2022-10-11T07:48:33.112Z,1.77
2022-10-11T07:51:04.173Z,2.20
2022-10-11T07:53:31.292Z,1.97
2022-10-11T07:56:02.387Z,2.03
2022-10-11T07:58:29.741Z,2.07
2022-10-11T08:00:57.423Z,1.80
2022-10-11T08:03:24.557Z,2.43
2022-10-11T08:05:52.519Z,1.90
2022-10-11T08:08:19.600Z,2.03
2022-10-11T08:10:46.660Z,2.00
2022-10-11T08:13:14.400Z,1.80
2022-10-11T08:15:41.425Z,1.87
2022-10-11T08:18:08.476Z,2.07
2022-10-11T08:20:35.594Z,1.50
2022-10-11T08:23:02.674Z,1.60
2022-10-11T08:25:29.750Z,1.73
2022-10-11T08:27:56.926Z,1.83
2022-10-11T08:30:23.977Z,1.80
2022-10-11T08:32:51.054Z,1.83
2022-10-11T08:35:18.123Z,1.57
2022-10-11T08:37:45.165Z,1.90
2022-10-11T08:40:15.646Z,2.20
2022-10-11T08:42:46.406Z,1.90
2022-10-11T08:45:22.784Z,1.80
2022-10-11T08:47:49.902Z,2.20
2022-10-11T08:50:22.084Z,2.00
2022-10-11T08:52:51.820Z,2.23
2022-10-11T08:55:21.749Z,1.57
2022-10-11T08:57:51.808Z,1.77
2022-10-11T09:00:19.291Z,1.87
2022-10-11T09:03:07.494Z,1.67
2022-10-11T09:05:36.227Z,1.83
2022-10-11T09:08:29.314Z,1.30
2022-10-11T09:11:01.168Z,1.30
2022-10-11T09:13:46.950Z,1.43
2022-10-11T09:16:32.793Z,1.60
2022-10-11T09:19:08.925Z,1.27
2022-10-11T09:21:54.467Z,1.60
2022-10-11T09:24:21.507Z,1.40
2022-10-11T09:26:55.547Z,1.50
2022-10-11T09:29:36.950Z,1.33
2022-10-11T09:32:11.930Z,1.37
2022-10-11T09:34:39.006Z,1.10
2022-10-11T09:37:16.868Z,0.80
2022-10-11T09:39:48.856Z,1.20
2022-10-11T09:42:16.185Z,1.10
2022-10-11T09:44:50.586Z,1.23
2022-10-11T09:47:25.682Z,1.40
2022-10-11T09:49:52.692Z,1.10
2022-10-11T09:52:20.878Z,0.80
2022-10-11T09:54:49.547Z,1.07
2022-10-11T09:57:22.498Z,1.10
2022-10-11T09:59:59.171Z,0.90
2022-10-11T10:02:26.637Z,1.40
2022-10-11T10:05:09.126Z,1.13
2022-10-11T10:07:37.795Z,1.23
2022-10-11T10:10:26.435Z,1.23
2022-10-11T10:13:04.214Z,1.10
2022-10-11T10:15:32.692Z,1.30
2022-10-11T10:17:59.899Z,1.10
2022-10-11T10:20:27.333Z,1.33
2022-10-11T10:22:54.603Z,1.20
2022-10-11T10:25:37.450Z,0.83
2022-10-11T10:28:36.048Z,0.90
2022-10-11T10:31:03.354Z,1.10
2022-10-11T10:33:36.641Z,0.93
2022-10-11T10:36:06.279Z,1.00
2022-10-11T10:38:35.440Z,0.80
2022-10-11T10:41:03.846Z,1.00
2022-10-11T10:43:34.969Z,1.10
2022-10-11T10:46:20.468Z,1.00
2022-10-11T10:52:05.265Z,0.87
2022-10-11T10:54:35.459Z,0.80
2022-10-11T10:57:04.270Z,1.50
2022-10-11T10:59:40.243Z,0.77
2022-10-11T11:02:45.842Z,0.67
2022-10-11T11:05:20.450Z,0.80
2022-10-11T11:08:05.803Z,0.70
2022-10-11T11:10:35.743Z,0.93
2022-10-11T11:13:05.541Z,0.90
2022-10-11T11:15:38.131Z,1.00
2022-10-11T11:18:14.596Z,0.77
2022-10-11T11:20:53.667Z,1.17
2022-10-11T11:23:39.607Z,0.83
2022-10-11T11:26:09.632Z,0.67
2022-10-11T11:28:51.754Z,0.90
2022-10-11T11:31:42.090Z,0.97
2022-10-11T11:34:29.823Z,0.80
2022-10-11T11:36:58.611Z,0.80
2022-10-11T11:39:28.834Z,0.77
2022-10-11T11:42:05.995Z,1.00
2022-10-11T11:44:38.397Z,0.70
2022-10-11T11:47:10.539Z,0.87
2022-10-11T11:49:39.247Z,0.87
2022-10-11T11:52:07.351Z,1.10
2022-10-11T11:54:54.631Z,0.73
2022-10-11T11:57:24.694Z,0.83
2022-10-11T12:00:04.719Z,0.80
2022-10-11T12:02:50.265Z,1.07
2022-10-11T12:05:20.249Z,0.80
2022-10-11T12:07:49.521Z,0.90
2022-10-11T12:10:23.469Z,0.80
2022-10-11T12:13:01.910Z,0.77
2022-10-11T12:15:29.032Z,0.83
2022-10-11T12:17:57.339Z,0.80
2022-10-11T12:20:37.926Z,1.00
2022-10-11T12:23:25.275Z,0.90
2022-10-11T12:26:10.867Z,0.77
2022-10-11T12:28:38.598Z,0.80
2022-10-11T12:31:07.256Z,0.67
2022-10-11T12:33:34.483Z,0.83
2022-10-11T12:36:21.714Z,0.80
2022-10-11T12:39:08.746Z,0.60
2022-10-11T12:41:50.164Z,0.70
2022-10-11T12:44:20.648Z,0.70
2022-10-11T12:46:50.633Z,0.60
2022-10-11T12:49:17.642Z,0.87
2022-10-11T12:52:03.164Z,1.00
2022-10-11T12:54:36.898Z,0.80
2022-10-11T12:57:12.349Z,0.70
2022-10-11T12:59:42.295Z,0.60
2022-10-11T13:02:24.420Z,0.93
2022-10-11T13:04:51.636Z,0.90
2022-10-11T13:07:23.378Z,0.50
2022-10-11T13:09:53.751Z,0.90
2022-10-11T13:12:23.187Z,0.87
2022-10-11T13:14:59.446Z,0.80
2022-10-11T13:17:34.489Z,1.00
2022-10-11T13:20:16.328Z,1.00
2022-10-11T13:22:43.848Z,0.70
2022-10-11T13:25:14.973Z,1.10
2022-10-11T13:27:42.043Z,1.03
2022-10-11T13:30:12.035Z,1.17
2022-10-11T13:32:39.170Z,0.90
2022-10-11T13:35:09.927Z,0.70
2022-10-11T13:37:45.012Z,0.80
2022-10-11T13:40:16.161Z,0.60
2022-10-11T13:42:43.559Z,0.77
2022-10-11T13:45:13.928Z,0.87
2022-10-11T13:47:41.147Z,0.80
2022-10-11T13:50:08.304Z,0.87
2022-10-11T13:52:35.398Z,0.60
2022-10-11T13:55:05.920Z,0.50
2022-10-11T13:57:53.259Z,1.00
2022-10-11T14:00:23.647Z,0.87
2022-10-11T14:02:52.442Z,0.70
2022-10-11T14:05:39.780Z,0.80
2022-10-11T14:08:08.800Z,0.60
2022-10-11T14:10:36.007Z,0.80
2022-10-11T14:13:06.196Z,1.03
2022-10-11T14:15:37.969Z,0.70
2022-10-11T14:18:23.976Z,0.70
2022-10-11T14:20:51.023Z,0.77
2022-10-11T14:23:18.064Z,0.90
2022-10-11T14:25:45.317Z,0.83
2022-10-11T14:28:13.316Z,0.80
2022-10-11T14:30:42.103Z,0.80
2022-10-11T14:33:09.214Z,0.80
2022-10-11T14:35:36.338Z,0.90
2022-10-11T14:38:03.425Z,0.80
2022-10-11T14:40:31.639Z,0.90
2022-10-11T14:42:58.687Z,1.23
2022-10-11T14:45:25.785Z,0.80
2022-10-11T14:47:52.914Z,0.97
2022-10-11T14:50:19.925Z,0.90
2022-10-11T14:52:47.299Z,0.70
2022-10-11T14:55:14.383Z,0.80
2022-10-11T14:57:41.449Z,0.70
2022-10-11T15:00:15.630Z,0.60
2022-10-11T15:02:42.647Z,0.90
2022-10-11T15:05:09.696Z,0.90
2022-10-11T15:07:36.710Z,0.80
2022-10-11T15:10:04.333Z,0.80
2022-10-11T15:12:31.366Z,0.77
2022-10-11T15:14:58.413Z,0.90
2022-10-11T15:17:25.625Z,0.93
2022-10-11T15:19:52.665Z,1.00
2022-10-11T15:22:19.753Z,0.70
2022-10-11T15:24:51.371Z,0.80
2022-10-11T15:27:18.788Z,0.90
2022-10-11T15:29:45.850Z,1.03
2022-10-11T15:32:12.910Z,0.87
2022-10-11T15:34:39.946Z,1.30
2022-10-11T15:37:06.951Z,0.80
2022-10-11T15:39:34.052Z,0.80
2022-10-11T15:42:01.113Z,0.93
2022-10-11T15:44:28.235Z,0.70
2022-10-11T15:46:55.384Z,1.00
2022-10-11T15:49:22.413Z,0.83
2022-10-11T15:51:49.451Z,1.20
2022-10-11T15:54:16.504Z,0.83
2022-10-11T15:56:43.548Z,0.90
2022-10-11T15:59:11.764Z,1.00
2022-10-11T16:01:38.958Z,0.80
2022-10-11T16:04:06.280Z,0.80
2022-10-11T16:06:33.369Z,1.13
2022-10-11T16:09:00.463Z,0.80
2022-10-11T16:11:27.574Z,0.90
2022-10-11T16:13:54.656Z,1.07
2022-10-11T16:16:21.731Z,1.00
2022-10-11T16:18:50.642Z,1.23
2022-10-11T16:21:17.688Z,1.17
2022-10-11T16:23:44.737Z,1.47
2022-10-11T16:26:13.655Z,1.00
2022-10-11T16:28:41.851Z,1.13
2022-10-11T16:31:09.752Z,1.13
2022-10-11T16:33:45.496Z,1.23
2022-10-11T16:36:32.516Z,1.10
2022-10-11T16:39:00.132Z,1.10
2022-10-11T16:41:27.165Z,1.20
2022-10-11T16:43:55.157Z,1.20
2022-10-11T16:46:22.528Z,1.20
2022-10-11T16:48:49.647Z,1.43
2022-10-11T16:51:16.707Z,1.60
2022-10-11T16:53:43.728Z,1.17
2022-10-11T16:56:12.112Z,1.30
2022-10-11T16:58:39.137Z,1.30
2022-10-11T17:01:10.012Z,1.40
2022-10-11T17:03:37.373Z,1.10
2022-10-11T17:06:05.196Z,1.10
2022-10-11T17:08:32.666Z,1.10
2022-10-11T17:11:00.332Z,1.50
2022-10-11T17:13:27.562Z,1.10
2022-10-11T17:15:54.626Z,1.10
2022-10-11T17:18:21.813Z,3.27
2022-10-11T17:20:48.913Z,4.33
2022-10-11T17:23:15.979Z,5.27
2022-10-11T17:25:46.863Z,3.30
2022-10-11T17:28:14.217Z,2.63
2022-10-11T17:30:42.118Z,2.47
2022-10-11T17:33:09.569Z,2.40
2022-10-11T17:35:36.635Z,2.37
2022-10-11T17:38:06.188Z,2.23
2022-10-11T17:40:33.721Z,2.23
2022-10-11T17:43:00.884Z,1.87
2022-10-11T17:45:27.912Z,1.57
2022-10-11T17:47:54.929Z,1.50
2022-10-11T17:50:21.973Z,1.70
2022-10-11T17:52:49.059Z,1.70
2022-10-11T17:55:16.226Z,1.80
2022-10-11T17:57:43.284Z,1.60
2022-10-11T18:00:10.707Z,1.87
2022-10-11T18:02:40.136Z,2.17
2022-10-11T18:05:07.705Z,3.63
2022-10-11T18:07:35.040Z,5.13
2022-10-11T18:10:02.361Z,4.87
2022-10-11T18:12:30.046Z,4.10
2022-10-11T18:14:57.083Z,3.17
2022-10-11T18:17:24.276Z,2.27
2022-10-11T18:19:51.353Z,2.07
2022-10-11T18:22:18.363Z,1.63
2022-10-11T18:24:45.468Z,1.43
2022-10-11T18:27:12.519Z,1.50
2022-10-11T18:29:39.560Z,2.10
2022-10-11T18:32:06.712Z,2.30
2022-10-11T18:34:33.782Z,2.03
2022-10-11T18:37:00.949Z,2.30
2022-10-11T18:39:28.005Z,2.60
2022-10-11T18:41:55.037Z,2.33
2022-10-11T18:44:22.098Z,2.10
2022-10-11T18:46:50.230Z,1.90
2022-10-11T18:49:17.280Z,2.30
2022-10-11T18:51:46.437Z,2.57
2022-10-11T18:54:16.740Z,2.23
2022-10-11T18:56:47.191Z,2.27
2022-10-11T18:59:14.314Z,2.67
2022-10-11T19:01:42.497Z,2.20
2022-10-11T19:04:11.054Z,2.73
2022-10-11T19:06:42.914Z,3.13
2022-10-11T19:09:22.050Z,2.50
2022-10-11T19:11:50.186Z,2.90
2022-10-11T19:14:17.956Z,3.30
2022-10-11T19:16:49.030Z,2.73
2022-10-11T19:19:16.512Z,2.67
2022-10-11T19:21:43.638Z,2.43
2022-10-11T19:24:10.643Z,2.80
2022-10-11T19:26:39.696Z,2.90
2022-10-11T19:29:06.806Z,2.80
2022-10-11T19:31:34.828Z,2.67
2022-10-11T19:34:01.940Z,2.77
2022-10-11T19:36:34.046Z,2.90
2022-10-11T19:39:03.788Z,2.70
2022-10-11T19:41:30.880Z,3.30
2022-10-11T19:43:58.195Z,3.50
2022-10-11T19:46:50.435Z,3.50
2022-10-11T19:49:15.695Z,3.50
2022-10-11T19:51:42.765Z,3.40
2022-10-11T19:54:12.192Z,3.67
2022-10-11T19:56:39.267Z,3.57
2022-10-11T19:59:06.542Z,4.00
2022-10-11T20:01:34.360Z,4.50
2022-10-11T20:04:03.828Z,4.10
2022-10-11T20:06:37.173Z,4.00
2022-10-11T20:09:27.886Z,4.00
2022-10-11T20:11:52.481Z,3.60
2022-10-11T20:14:20.388Z,4.17
2022-10-11T20:16:49.868Z,3.77
2022-10-11T20:19:17.249Z,3.20
2022-10-11T20:21:44.915Z,3.30
2022-10-11T20:24:11.949Z,3.13
2022-10-11T20:26:39.276Z,4.40
2022-10-11T20:29:06.933Z,3.80
2022-10-11T20:31:34.770Z,3.63
2022-10-11T20:34:04.083Z,3.90
2022-10-11T20:36:31.630Z,3.17
2022-10-11T20:38:59.427Z,2.83
2022-10-11T20:41:27.970Z,3.27
2022-10-11T20:43:56.673Z,2.93
2022-10-11T20:46:24.802Z,3.10
2022-10-11T20:48:57.594Z,3.00
2022-10-11T20:51:27.571Z,3.23
2022-10-11T20:53:54.623Z,3.33
2022-10-11T20:56:22.610Z,3.60
2022-10-11T20:58:54.070Z,3.53
2022-10-11T21:01:22.038Z,3.67
2022-10-11T21:03:49.102Z,3.43
2022-10-11T21:06:16.118Z,3.37
2022-10-11T21:08:43.168Z,3.43
2022-10-11T21:11:10.488Z,3.30
2022-10-11T21:13:37.963Z,3.50
2022-10-11T21:16:10.987Z,3.03
2022-10-11T21:18:38.156Z,3.17
2022-10-11T21:21:09.256Z,3.43
2022-10-11T21:23:36.373Z,3.17
2022-10-11T21:26:04.181Z,3.60
2022-10-11T21:28:31.306Z,4.10
2022-10-11T21:31:08.082Z,3.80
2022-10-11T21:33:35.408Z,3.80
2022-10-11T21:36:06.544Z,3.60
2022-10-11T21:38:33.638Z,4.10
2022-10-11T21:41:07.600Z,3.77
2022-10-11T21:43:35.905Z,3.80
2022-10-11T21:47:01.127Z,3.80
2022-10-11T21:49:19.827Z,3.63
2022-10-11T21:51:46.870Z,3.60
2022-10-11T21:54:13.971Z,3.40
2022-10-11T21:56:41.248Z,3.67
2022-10-11T21:59:11.261Z,3.20
2022-10-11T22:01:39.903Z,3.50
2022-10-11T22:04:09.875Z,3.30
2022-10-11T22:06:37.495Z,2.93
2022-10-11T22:09:05.277Z,2.70
2022-10-11T22:11:32.366Z,2.60
2022-10-11T22:13:59.445Z,3.27
2022-10-11T22:16:26.506Z,3.00
2022-10-11T22:18:54.027Z,3.20
2022-10-11T22:21:22.196Z,2.97
2022-10-11T22:23:50.187Z,3.43
2022-10-11T22:26:21.411Z,3.57
2022-10-11T22:28:48.823Z,3.23
2022-10-11T22:31:16.984Z,3.53
2022-10-11T22:36:12.857Z,3.20
2022-10-11T22:38:41.153Z,2.97
2022-10-11T22:41:08.797Z,2.80
2022-10-11T22:43:35.850Z,3.40
2022-10-11T22:46:03.053Z,3.23
2022-10-11T22:48:30.123Z,3.00
2022-10-11T22:50:57.242Z,3.30
2022-10-11T22:53:24.298Z,3.73
2022-10-11T22:55:51.328Z,3.07
2022-10-11T22:58:18.347Z,2.83
2022-10-11T23:00:45.423Z,3.00
2022-10-11T23:03:13.155Z,3.00
2022-10-11T23:05:40.233Z,2.60
2022-10-11T23:08:09.371Z,3.00
2022-10-11T23:10:40.006Z,2.93
2022-10-11T23:13:07.059Z,2.73
2022-10-11T23:15:34.090Z,2.70
2022-10-11T23:18:01.103Z,2.87
2022-10-11T23:20:28.160Z,3.00
2022-10-11T23:22:55.160Z,2.50
2022-10-11T23:25:22.193Z,2.83
2022-10-11T23:27:49.225Z,2.83
2022-10-11T23:30:16.318Z,3.00
2022-10-11T23:32:43.395Z,2.70
2022-10-11T23:35:10.443Z,3.30
2022-10-11T23:37:37.904Z,3.10
2022-10-11T23:40:05.387Z,2.80
2022-10-11T23:42:32.479Z,3.20
2022-10-11T23:44:59.484Z,3.40
2022-10-11T23:47:26.510Z,3.23
2022-10-11T23:49:53.544Z,3.20
2022-10-11T23:52:20.643Z,3.13
2022-10-11T23:54:47.667Z,3.03
2022-10-11T23:57:14.711Z,2.80
2022-10-11T23:59:41.755Z,3.43
